Yacolt, Washington
Current Conditions -  °F | °C
As of 6:53 PM on Tuesday 25 Nov 2014 (Local Time) from KVUO Reporting Station
Overcast Overcast  
Wind Chill: 60°   Ceiling: 6000
Heat Index: 60°   Visibility: 10mi
Dew Point: 51°   Wind: 5mph
Humidity: 72%   Direction: 170°S
Pressure: 30.29"   Gusts: NA
Location:  45.87°N, 122.41°W
Report Text: KVUO 260253Z AUTO 17004KT 10SM OVC060 16/11 A3029 RMK AO2 SLP256 T01560106 58001
Loading
Personal Weather Stations






























Interactive Weather Map New forecast layout! Learn more

10-Day Weather Forecast

Advertisements
Track Severe Weather on mobile